sensor_id;sensor_type;location;lat;lon;timestamp;P1;durP1;ratioP1;P2;durP2;ratioP2
19024;SDS011;9645;51.448;6.260;2022-12-18T00:01:13;40.65;;;13.90;;
19024;SDS011;9645;51.448;6.260;2022-12-18T00:03:42;44.60;;;13.68;;
19024;SDS011;9645;51.448;6.260;2022-12-18T00:06:09;47.70;;;13.80;;
19024;SDS011;9645;51.448;6.260;2022-12-18T00:08:36;31.50;;;11.55;;
19024;SDS011;9645;51.448;6.260;2022-12-18T00:11:05;42.63;;;12.10;;
19024;SDS011;9645;51.448;6.260;2022-12-18T00:13:32;37.20;;;11.43;;
19024;SDS011;9645;51.448;6.260;2022-12-18T00:16:01;37.88;;;13.07;;
19024;SDS011;9645;51.448;6.260;2022-12-18T00:18:28;41.90;;;12.85;;
19024;SDS011;9645;51.448;6.260;2022-12-18T00:20:57;31.77;;;10.75;;
19024;SDS011;9645;51.448;6.260;2022-12-18T00:23:25;24.70;;;9.70;;
19024;SDS011;9645;51.448;6.260;2022-12-18T00:25:52;31.98;;;10.75;;
19024;SDS011;9645;51.448;6.260;2022-12-18T00:28:21;30.92;;;10.90;;
19024;SDS011;9645;51.448;6.260;2022-12-18T00:30:48;29.58;;;10.35;;
19024;SDS011;9645;51.448;6.260;2022-12-18T00:33:16;28.73;;;11.50;;
19024;SDS011;9645;51.448;6.260;2022-12-18T00:35:43;30.70;;;10.70;;
19024;SDS011;9645;51.448;6.260;2022-12-18T00:38:10;35.75;;;10.98;;
19024;SDS011;9645;51.448;6.260;2022-12-18T00:40:38;36.10;;;12.35;;
19024;SDS011;9645;51.448;6.260;2022-12-18T00:43:05;45.17;;;10.95;;
19024;SDS011;9645;51.448;6.260;2022-12-18T00:45:33;35.35;;;10.38;;
19024;SDS011;9645;51.448;6.260;2022-12-18T00:48:00;39.15;;;11.13;;
19024;SDS011;9645;51.448;6.260;2022-12-18T00:50:27;29.52;;;8.93;;
19024;SDS011;9645;51.448;6.260;2022-12-18T00:52:54;30.23;;;11.15;;
19024;SDS011;9645;51.448;6.260;2022-12-18T00:55:21;29.98;;;9.40;;
19024;SDS011;9645;51.448;6.260;2022-12-18T00:57:48;26.20;;;9.60;;
19024;SDS011;9645;51.448;6.260;2022-12-18T01:00:17;27.08;;;8.93;;
19024;SDS011;9645;51.448;6.260;2022-12-18T01:02:46;41.88;;;10.98;;
19024;SDS011;9645;51.448;6.260;2022-12-18T01:05:13;30.23;;;9.90;;
19024;SDS011;9645;51.448;6.260;2022-12-18T01:07:41;35.47;;;10.68;;
19024;SDS011;9645;51.448;6.260;2022-12-18T01:10:09;29.00;;;9.23;;
19024;SDS011;9645;51.448;6.260;2022-12-18T01:12:38;35.92;;;10.23;;
19024;SDS011;9645;51.448;6.260;2022-12-18T01:15:06;24.05;;;8.23;;
19024;SDS011;9645;51.448;6.260;2022-12-18T01:17:34;31.90;;;8.77;;
19024;SDS011;9645;51.448;6.260;2022-12-18T01:20:03;26.42;;;9.65;;
19024;SDS011;9645;51.448;6.260;2022-12-18T01:22:33;28.80;;;8.75;;
19024;SDS011;9645;51.448;6.260;2022-12-18T01:25:00;31.15;;;8.38;;
19024;SDS011;9645;51.448;6.260;2022-12-18T01:27:28;29.08;;;9.80;;
19024;SDS011;9645;51.448;6.260;2022-12-18T01:29:55;32.67;;;9.60;;
19024;SDS011;9645;51.448;6.260;2022-12-18T01:32:22;29.23;;;8.57;;
19024;SDS011;9645;51.448;6.260;2022-12-18T01:34:49;24.08;;;8.93;;
19024;SDS011;9645;51.448;6.260;2022-12-18T01:37:17;25.77;;;8.88;;
19024;SDS011;9645;51.448;6.260;2022-12-18T01:39:44;38.08;;;9.55;;
19024;SDS011;9645;51.448;6.260;2022-12-18T01:42:12;22.65;;;9.32;;
19024;SDS011;9645;51.448;6.260;2022-12-18T01:47:34;34.20;;;7.95;;
19024;SDS011;9645;51.448;6.260;2022-12-18T01:50:05;28.58;;;9.85;;
19024;SDS011;9645;51.448;6.260;2022-12-18T01:52:35;24.80;;;8.95;;
19024;SDS011;9645;51.448;6.260;2022-12-18T01:55:03;27.58;;;8.10;;
19024;SDS011;9645;51.448;6.260;2022-12-18T01:57:33;31.38;;;8.82;;
19024;SDS011;9645;51.448;6.260;2022-12-18T02:00:04;27.90;;;9.07;;
19024;SDS011;9645;51.448;6.260;2022-12-18T02:02:34;30.35;;;9.60;;
19024;SDS011;9645;51.448;6.260;2022-12-18T02:05:02;23.10;;;8.05;;
19024;SDS011;9645;51.448;6.260;2022-12-18T02:07:33;19.23;;;8.13;;
19024;SDS011;9645;51.448;6.260;2022-12-18T02:10:10;32.80;;;7.47;;
19024;SDS011;9645;51.448;6.260;2022-12-18T02:12:46;25.75;;;8.75;;
19024;SDS011;9645;51.448;6.260;2022-12-18T02:15:19;21.17;;;7.05;;
19024;SDS011;9645;51.448;6.260;2022-12-18T02:17:52;23.73;;;7.95;;
19024;SDS011;9645;51.448;6.260;2022-12-18T02:20:24;27.52;;;8.30;;
19024;SDS011;9645;51.448;6.260;2022-12-18T02:23:01;29.52;;;7.20;;
19024;SDS011;9645;51.448;6.260;2022-12-18T02:25:40;24.15;;;8.80;;
19024;SDS011;9645;51.448;6.260;2022-12-18T02:28:20;30.35;;;8.07;;
19024;SDS011;9645;51.448;6.260;2022-12-18T02:30:52;22.23;;;7.57;;
19024;SDS011;9645;51.448;6.260;2022-12-18T02:33:25;30.75;;;9.10;;
19024;SDS011;9645;51.448;6.260;2022-12-18T02:35:53;25.83;;;9.23;;
19024;SDS011;9645;51.448;6.260;2022-12-18T02:38:22;26.55;;;9.15;;
19024;SDS011;9645;51.448;6.260;2022-12-18T02:40:52;23.38;;;7.90;;
19024;SDS011;9645;51.448;6.260;2022-12-18T02:43:20;30.25;;;8.90;;
19024;SDS011;9645;51.448;6.260;2022-12-18T02:45:48;28.13;;;9.23;;
19024;SDS011;9645;51.448;6.260;2022-12-18T02:48:18;24.23;;;8.43;;
19024;SDS011;9645;51.448;6.260;2022-12-18T02:50:51;25.23;;;8.65;;
19024;SDS011;9645;51.448;6.260;2022-12-18T02:53:27;34.10;;;8.18;;
19024;SDS011;9645;51.448;6.260;2022-12-18T02:56:05;28.63;;;8.55;;
19024;SDS011;9645;51.448;6.260;2022-12-18T02:58:37;26.67;;;8.93;;
19024;SDS011;9645;51.448;6.260;2022-12-18T03:01:11;22.90;;;8.75;;
19024;SDS011;9645;51.448;6.260;2022-12-18T03:03:46;22.45;;;7.43;;
19024;SDS011;9645;51.448;6.260;2022-12-18T03:06:18;29.98;;;9.10;;
19024;SDS011;9645;51.448;6.260;2022-12-18T03:08:50;26.38;;;8.27;;
19024;SDS011;9645;51.448;6.260;2022-12-18T03:11:27;25.73;;;7.05;;
19024;SDS011;9645;51.448;6.260;2022-12-18T03:14:23;29.38;;;8.27;;
19024;SDS011;9645;51.448;6.260;2022-12-18T03:16:53;22.27;;;7.47;;
19024;SDS011;9645;51.448;6.260;2022-12-18T03:19:24;30.98;;;9.20;;
19024;SDS011;9645;51.448;6.260;2022-12-18T03:21:55;35.05;;;8.60;;
19024;SDS011;9645;51.448;6.260;2022-12-18T03:24:25;21.35;;;8.20;;
19024;SDS011;9645;51.448;6.260;2022-12-18T03:27:00;20.17;;;8.27;;
19024;SDS011;9645;51.448;6.260;2022-12-18T03:29:33;24.55;;;8.15;;
19024;SDS011;9645;51.448;6.260;2022-12-18T03:32:04;27.58;;;8.73;;
19024;SDS011;9645;51.448;6.260;2022-12-18T03:34:36;21.05;;;7.65;;
19024;SDS011;9645;51.448;6.260;2022-12-18T03:37:06;20.20;;;7.10;;
19024;SDS011;9645;51.448;6.260;2022-12-18T03:39:33;32.65;;;8.77;;
19024;SDS011;9645;51.448;6.260;2022-12-18T03:42:04;24.83;;;8.35;;
19024;SDS011;9645;51.448;6.260;2022-12-18T03:44:35;26.20;;;9.73;;
19024;SDS011;9645;51.448;6.260;2022-12-18T03:47:09;23.27;;;8.85;;
19024;SDS011;9645;51.448;6.260;2022-12-18T03:49:44;27.23;;;8.25;;
19024;SDS011;9645;51.448;6.260;2022-12-18T03:52:17;30.88;;;8.95;;
19024;SDS011;9645;51.448;6.260;2022-12-18T03:54:47;27.85;;;8.15;;
19024;SDS011;9645;51.448;6.260;2022-12-18T03:57:18;29.35;;;9.55;;
19024;SDS011;9645;51.448;6.260;2022-12-18T03:59:47;29.38;;;8.93;;
19024;SDS011;9645;51.448;6.260;2022-12-18T04:02:16;26.42;;;9.70;;
19024;SDS011;9645;51.448;6.260;2022-12-18T04:04:44;29.45;;;9.38;;
19024;SDS011;9645;51.448;6.260;2022-12-18T04:07:13;28.35;;;7.60;;
19024;SDS011;9645;51.448;6.260;2022-12-18T04:09:41;30.65;;;8.45;;
19024;SDS011;9645;51.448;6.260;2022-12-18T04:12:09;32.83;;;9.70;;
19024;SDS011;9645;51.448;6.260;2022-12-18T04:14:37;38.17;;;10.35;;
19024;SDS011;9645;51.448;6.260;2022-12-18T04:17:04;23.52;;;8.55;;
19024;SDS011;9645;51.448;6.260;2022-12-18T04:19:31;28.80;;;9.88;;
19024;SDS011;9645;51.448;6.260;2022-12-18T04:21:58;22.60;;;8.95;;
19024;SDS011;9645;51.448;6.260;2022-12-18T04:24:25;26.05;;;8.15;;
19024;SDS011;9645;51.448;6.260;2022-12-18T04:26:53;31.33;;;9.85;;
19024;SDS011;9645;51.448;6.260;2022-12-18T04:29:20;25.17;;;8.80;;
19024;SDS011;9645;51.448;6.260;2022-12-18T04:31:49;28.92;;;8.05;;
19024;SDS011;9645;51.448;6.260;2022-12-18T04:34:16;27.25;;;8.48;;
19024;SDS011;9645;51.448;6.260;2022-12-18T04:36:43;23.65;;;8.63;;
19024;SDS011;9645;51.448;6.260;2022-12-18T04:39:10;29.52;;;9.38;;
19024;SDS011;9645;51.448;6.260;2022-12-18T04:41:37;26.77;;;9.73;;
19024;SDS011;9645;51.448;6.260;2022-12-18T04:44:04;31.05;;;10.10;;
19024;SDS011;9645;51.448;6.260;2022-12-18T04:46:31;17.85;;;7.20;;
19024;SDS011;9645;51.448;6.260;2022-12-18T04:49:00;31.13;;;8.80;;
19024;SDS011;9645;51.448;6.260;2022-12-18T04:51:26;31.63;;;9.38;;
19024;SDS011;9645;51.448;6.260;2022-12-18T04:53:53;27.08;;;8.18;;
19024;SDS011;9645;51.448;6.260;2022-12-18T04:56:21;20.95;;;8.50;;
19024;SDS011;9645;51.448;6.260;2022-12-18T04:58:48;24.00;;;7.90;;
19024;SDS011;9645;51.448;6.260;2022-12-18T05:01:16;20.10;;;8.02;;
19024;SDS011;9645;51.448;6.260;2022-12-18T05:03:44;33.92;;;8.60;;
19024;SDS011;9645;51.448;6.260;2022-12-18T05:06:12;28.88;;;8.63;;
19024;SDS011;9645;51.448;6.260;2022-12-18T05:08:39;22.30;;;6.75;;
19024;SDS011;9645;51.448;6.260;2022-12-18T05:11:07;27.67;;;8.00;;
19024;SDS011;9645;51.448;6.260;2022-12-18T05:13:36;21.95;;;8.40;;
19024;SDS011;9645;51.448;6.260;2022-12-18T05:16:04;24.90;;;8.07;;
19024;SDS011;9645;51.448;6.260;2022-12-18T05:18:32;31.65;;;8.05;;
19024;SDS011;9645;51.448;6.260;2022-12-18T05:20:59;24.48;;;8.38;;
19024;SDS011;9645;51.448;6.260;2022-12-18T05:23:27;26.35;;;8.43;;
19024;SDS011;9645;51.448;6.260;2022-12-18T05:25:55;24.30;;;8.23;;
19024;SDS011;9645;51.448;6.260;2022-12-18T05:28:24;22.33;;;8.00;;
19024;SDS011;9645;51.448;6.260;2022-12-18T05:30:53;33.22;;;8.00;;
19024;SDS011;9645;51.448;6.260;2022-12-18T05:33:22;28.48;;;8.20;;
19024;SDS011;9645;51.448;6.260;2022-12-18T05:35:51;22.90;;;8.60;;
19024;SDS011;9645;51.448;6.260;2022-12-18T05:38:18;20.92;;;7.57;;
19024;SDS011;9645;51.448;6.260;2022-12-18T05:40:46;24.08;;;9.10;;
19024;SDS011;9645;51.448;6.260;2022-12-18T05:43:14;20.77;;;7.55;;
19024;SDS011;9645;51.448;6.260;2022-12-18T05:45:41;20.65;;;7.72;;
19024;SDS011;9645;51.448;6.260;2022-12-18T05:48:08;18.55;;;7.03;;
19024;SDS011;9645;51.448;6.260;2022-12-18T05:50:39;28.83;;;8.40;;
19024;SDS011;9645;51.448;6.260;2022-12-18T05:53:07;25.25;;;9.43;;
19024;SDS011;9645;51.448;6.260;2022-12-18T05:55:36;23.77;;;7.60;;
19024;SDS011;9645;51.448;6.260;2022-12-18T05:58:06;30.23;;;9.40;;
19024;SDS011;9645;51.448;6.260;2022-12-18T06:00:35;25.75;;;8.50;;
19024;SDS011;9645;51.448;6.260;2022-12-18T06:03:05;19.83;;;8.52;;
19024;SDS011;9645;51.448;6.260;2022-12-18T06:05:34;22.80;;;8.43;;
19024;SDS011;9645;51.448;6.260;2022-12-18T06:08:02;23.40;;;7.93;;
19024;SDS011;9645;51.448;6.260;2022-12-18T06:10:29;30.70;;;8.50;;
19024;SDS011;9645;51.448;6.260;2022-12-18T06:12:56;21.08;;;7.38;;
19024;SDS011;9645;51.448;6.260;2022-12-18T06:15:24;32.33;;;9.27;;
19024;SDS011;9645;51.448;6.260;2022-12-18T06:17:54;22.52;;;8.38;;
19024;SDS011;9645;51.448;6.260;2022-12-18T06:20:21;27.65;;;8.70;;
19024;SDS011;9645;51.448;6.260;2022-12-18T06:22:49;30.10;;;7.90;;
19024;SDS011;9645;51.448;6.260;2022-12-18T06:25:16;21.15;;;7.70;;
19024;SDS011;9645;51.448;6.260;2022-12-18T06:27:43;26.98;;;8.32;;
19024;SDS011;9645;51.448;6.260;2022-12-18T06:30:10;23.67;;;7.88;;
19024;SDS011;9645;51.448;6.260;2022-12-18T06:32:39;29.45;;;8.70;;
19024;SDS011;9645;51.448;6.260;2022-12-18T06:35:06;26.67;;;8.65;;
19024;SDS011;9645;51.448;6.260;2022-12-18T06:37:34;29.73;;;9.73;;
19024;SDS011;9645;51.448;6.260;2022-12-18T06:40:01;29.52;;;8.40;;
19024;SDS011;9645;51.448;6.260;2022-12-18T06:42:28;26.50;;;8.50;;
19024;SDS011;9645;51.448;6.260;2022-12-18T06:44:55;30.38;;;9.57;;
19024;SDS011;9645;51.448;6.260;2022-12-18T06:47:22;21.38;;;7.03;;
19024;SDS011;9645;51.448;6.260;2022-12-18T06:49:51;32.22;;;9.07;;
19024;SDS011;9645;51.448;6.260;2022-12-18T06:52:18;26.45;;;8.73;;
19024;SDS011;9645;51.448;6.260;2022-12-18T06:54:45;24.88;;;8.57;;
19024;SDS011;9645;51.448;6.260;2022-12-18T06:57:12;29.52;;;8.80;;
19024;SDS011;9645;51.448;6.260;2022-12-18T06:59:40;25.52;;;8.70;;
19024;SDS011;9645;51.448;6.260;2022-12-18T07:02:09;27.50;;;8.32;;
19024;SDS011;9645;51.448;6.260;2022-12-18T07:04:37;28.25;;;8.90;;
19024;SDS011;9645;51.448;6.260;2022-12-18T07:07:05;27.40;;;9.52;;
19024;SDS011;9645;51.448;6.260;2022-12-18T07:09:32;25.60;;;7.65;;
19024;SDS011;9645;51.448;6.260;2022-12-18T07:12:00;25.60;;;9.10;;
19024;SDS011;9645;51.448;6.260;2022-12-18T07:14:27;26.55;;;8.70;;
19024;SDS011;9645;51.448;6.260;2022-12-18T07:16:54;27.95;;;9.20;;
19024;SDS011;9645;51.448;6.260;2022-12-18T07:19:23;22.60;;;8.20;;
19024;SDS011;9645;51.448;6.260;2022-12-18T07:21:51;25.08;;;8.85;;
19024;SDS011;9645;51.448;6.260;2022-12-18T07:24:19;28.20;;;9.13;;
19024;SDS011;9645;51.448;6.260;2022-12-18T07:26:46;34.40;;;10.05;;
19024;SDS011;9645;51.448;6.260;2022-12-18T07:29:13;22.40;;;7.95;;
19024;SDS011;9645;51.448;6.260;2022-12-18T07:31:40;30.15;;;9.05;;
19024;SDS011;9645;51.448;6.260;2022-12-18T07:34:09;35.17;;;9.85;;
19024;SDS011;9645;51.448;6.260;2022-12-18T07:36:36;43.33;;;12.30;;
19024;SDS011;9645;51.448;6.260;2022-12-18T07:39:04;23.85;;;9.23;;
19024;SDS011;9645;51.448;6.260;2022-12-18T07:41:32;31.75;;;9.40;;
19024;SDS011;9645;51.448;6.260;2022-12-18T07:43:59;32.28;;;11.32;;
19024;SDS011;9645;51.448;6.260;2022-12-18T07:46:26;27.73;;;9.63;;
19024;SDS011;9645;51.448;6.260;2022-12-18T07:48:54;25.98;;;9.02;;
19024;SDS011;9645;51.448;6.260;2022-12-18T07:51:21;37.50;;;12.50;;
19024;SDS011;9645;51.448;6.260;2022-12-18T07:53:48;25.90;;;10.70;;
19024;SDS011;9645;51.448;6.260;2022-12-18T07:56:15;28.35;;;8.48;;
19024;SDS011;9645;51.448;6.260;2022-12-18T07:58:43;23.70;;;8.77;;
19024;SDS011;9645;51.448;6.260;2022-12-18T08:01:11;34.40;;;8.52;;
19024;SDS011;9645;51.448;6.260;2022-12-18T08:03:39;25.77;;;8.30;;
19024;SDS011;9645;51.448;6.260;2022-12-18T08:06:07;24.85;;;8.10;;
19024;SDS011;9645;51.448;6.260;2022-12-18T08:08:35;30.73;;;9.93;;
19024;SDS011;9645;51.448;6.260;2022-12-18T08:11:02;25.83;;;8.20;;
19024;SDS011;9645;51.448;6.260;2022-12-18T08:13:29;22.13;;;8.60;;
19024;SDS011;9645;51.448;6.260;2022-12-18T08:15:59;30.02;;;8.75;;
19024;SDS011;9645;51.448;6.260;2022-12-18T08:18:28;25.83;;;9.15;;
19024;SDS011;9645;51.448;6.260;2022-12-18T08:20:55;34.45;;;10.48;;
19024;SDS011;9645;51.448;6.260;2022-12-18T08:23:22;20.65;;;7.88;;
19024;SDS011;9645;51.448;6.260;2022-12-18T08:25:49;26.38;;;8.20;;
19024;SDS011;9645;51.448;6.260;2022-12-18T08:28:16;26.20;;;9.00;;
19024;SDS011;9645;51.448;6.260;2022-12-18T08:30:46;30.08;;;9.13;;
19024;SDS011;9645;51.448;6.260;2022-12-18T08:33:19;19.50;;;8.13;;
19024;SDS011;9645;51.448;6.260;2022-12-18T08:35:46;20.70;;;8.10;;
19024;SDS011;9645;51.448;6.260;2022-12-18T08:38:13;26.17;;;8.32;;
19024;SDS011;9645;51.448;6.260;2022-12-18T08:40:40;25.33;;;8.60;;
19024;SDS011;9645;51.448;6.260;2022-12-18T08:43:08;26.92;;;8.75;;
19024;SDS011;9645;51.448;6.260;2022-12-18T08:45:54;24.88;;;8.82;;
19024;SDS011;9645;51.448;6.260;2022-12-18T08:48:23;26.45;;;8.35;;
19024;SDS011;9645;51.448;6.260;2022-12-18T08:50:55;26.40;;;9.15;;
19024;SDS011;9645;51.448;6.260;2022-12-18T08:53:23;24.77;;;8.55;;
19024;SDS011;9645;51.448;6.260;2022-12-18T08:55:51;25.40;;;9.27;;
19024;SDS011;9645;51.448;6.260;2022-12-18T08:58:18;34.00;;;8.10;;
19024;SDS011;9645;51.448;6.260;2022-12-18T09:00:45;28.33;;;10.45;;
19024;SDS011;9645;51.448;6.260;2022-12-18T09:03:13;31.25;;;8.93;;
19024;SDS011;9645;51.448;6.260;2022-12-18T09:05:41;27.70;;;8.55;;
19024;SDS011;9645;51.448;6.260;2022-12-18T09:08:09;32.60;;;8.90;;
19024;SDS011;9645;51.448;6.260;2022-12-18T09:10:40;24.73;;;9.27;;
19024;SDS011;9645;51.448;6.260;2022-12-18T09:13:09;23.35;;;8.63;;
19024;SDS011;9645;51.448;6.260;2022-12-18T09:15:39;28.83;;;8.95;;
19024;SDS011;9645;51.448;6.260;2022-12-18T09:18:08;30.20;;;9.90;;
19024;SDS011;9645;51.448;6.260;2022-12-18T09:20:35;21.55;;;8.45;;
19024;SDS011;9645;51.448;6.260;2022-12-18T09:23:03;22.83;;;8.27;;
19024;SDS011;9645;51.448;6.260;2022-12-18T09:25:34;22.83;;;7.97;;
19024;SDS011;9645;51.448;6.260;2022-12-18T09:28:02;26.25;;;9.98;;
19024;SDS011;9645;51.448;6.260;2022-12-18T09:30:30;28.00;;;9.43;;
19024;SDS011;9645;51.448;6.260;2022-12-18T09:32:59;26.52;;;9.40;;
19024;SDS011;9645;51.448;6.260;2022-12-18T09:35:26;29.80;;;9.95;;
19024;SDS011;9645;51.448;6.260;2022-12-18T09:37:53;27.00;;;8.90;;
19024;SDS011;9645;51.448;6.260;2022-12-18T09:40:23;27.40;;;9.98;;
19024;SDS011;9645;51.448;6.260;2022-12-18T09:42:55;25.77;;;8.65;;
19024;SDS011;9645;51.448;6.260;2022-12-18T09:45:27;30.25;;;10.07;;
19024;SDS011;9645;51.448;6.260;2022-12-18T09:47:56;30.98;;;8.80;;
19024;SDS011;9645;51.448;6.260;2022-12-18T09:50:27;27.40;;;9.68;;
19024;SDS011;9645;51.448;6.260;2022-12-18T09:52:58;25.67;;;9.85;;
19024;SDS011;9645;51.448;6.260;2022-12-18T09:55:34;32.90;;;10.20;;
19024;SDS011;9645;51.448;6.260;2022-12-18T09:58:05;32.70;;;9.43;;
19024;SDS011;9645;51.448;6.260;2022-12-18T10:00:42;21.60;;;9.30;;
19024;SDS011;9645;51.448;6.260;2022-12-18T10:03:10;31.70;;;9.57;;
19024;SDS011;9645;51.448;6.260;2022-12-18T10:05:43;26.67;;;10.07;;
19024;SDS011;9645;51.448;6.260;2022-12-18T10:08:20;27.70;;;10.00;;
19024;SDS011;9645;51.448;6.260;2022-12-18T10:10:57;26.15;;;9.63;;
19024;SDS011;9645;51.448;6.260;2022-12-18T10:13:30;22.90;;;8.32;;
19024;SDS011;9645;51.448;6.260;2022-12-18T10:16:08;30.63;;;10.20;;
19024;SDS011;9645;51.448;6.260;2022-12-18T10:18:54;24.23;;;8.95;;
19024;SDS011;9645;51.448;6.260;2022-12-18T10:21:30;32.17;;;8.88;;
19024;SDS011;9645;51.448;6.260;2022-12-18T10:24:04;26.83;;;9.48;;
19024;SDS011;9645;51.448;6.260;2022-12-18T10:26:42;25.02;;;9.18;;
19024;SDS011;9645;51.448;6.260;2022-12-18T10:29:11;26.95;;;9.38;;
19024;SDS011;9645;51.448;6.260;2022-12-18T10:31:39;22.77;;;9.38;;
19024;SDS011;9645;51.448;6.260;2022-12-18T10:34:08;29.00;;;9.75;;
19024;SDS011;9645;51.448;6.260;2022-12-18T10:36:36;38.33;;;10.90;;
19024;SDS011;9645;51.448;6.260;2022-12-18T10:39:17;34.45;;;10.57;;
19024;SDS011;9645;51.448;6.260;2022-12-18T10:41:46;26.42;;;10.52;;
19024;SDS011;9645;51.448;6.260;2022-12-18T10:44:16;36.55;;;11.43;;
19024;SDS011;9645;51.448;6.260;2022-12-18T10:46:44;25.23;;;9.73;;
19024;SDS011;9645;51.448;6.260;2022-12-18T10:49:19;24.65;;;9.40;;
19024;SDS011;9645;51.448;6.260;2022-12-18T10:51:49;29.35;;;9.65;;
19024;SDS011;9645;51.448;6.260;2022-12-18T10:54:18;27.05;;;10.05;;
19024;SDS011;9645;51.448;6.260;2022-12-18T10:56:49;34.60;;;10.02;;
19024;SDS011;9645;51.448;6.260;2022-12-18T10:59:18;28.27;;;10.10;;
19024;SDS011;9645;51.448;6.260;2022-12-18T11:01:47;27.20;;;10.65;;
19024;SDS011;9645;51.448;6.260;2022-12-18T11:04:17;25.90;;;10.50;;
19024;SDS011;9645;51.448;6.260;2022-12-18T11:06:57;32.72;;;10.75;;
19024;SDS011;9645;51.448;6.260;2022-12-18T11:09:26;28.05;;;10.02;;
19024;SDS011;9645;51.448;6.260;2022-12-18T11:11:58;35.15;;;11.30;;
19024;SDS011;9645;51.448;6.260;2022-12-18T11:14:28;27.80;;;10.15;;
19024;SDS011;9645;51.448;6.260;2022-12-18T11:16:57;32.63;;;9.88;;
19024;SDS011;9645;51.448;6.260;2022-12-18T11:19:28;31.90;;;10.65;;
19024;SDS011;9645;51.448;6.260;2022-12-18T11:21:59;28.70;;;10.20;;
19024;SDS011;9645;51.448;6.260;2022-12-18T11:24:29;29.63;;;11.23;;
19024;SDS011;9645;51.448;6.260;2022-12-18T11:27:01;29.15;;;9.25;;
19024;SDS011;9645;51.448;6.260;2022-12-18T11:29:32;29.17;;;9.43;;
19024;SDS011;9645;51.448;6.260;2022-12-18T11:34:52;32.88;;;10.55;;
19024;SDS011;9645;51.448;6.260;2022-12-18T11:37:23;28.52;;;9.65;;
19024;SDS011;9645;51.448;6.260;2022-12-18T11:39:52;27.90;;;10.55;;
19024;SDS011;9645;51.448;6.260;2022-12-18T11:42:24;31.42;;;10.57;;
19024;SDS011;9645;51.448;6.260;2022-12-18T11:44:58;33.70;;;11.50;;
19024;SDS011;9645;51.448;6.260;2022-12-18T11:47:29;27.52;;;10.13;;
19024;SDS011;9645;51.448;6.260;2022-12-18T11:50:01;35.97;;;12.45;;
19024;SDS011;9645;51.448;6.260;2022-12-18T11:52:31;33.20;;;11.20;;
19024;SDS011;9645;51.448;6.260;2022-12-18T11:55:05;34.10;;;10.98;;
19024;SDS011;9645;51.448;6.260;2022-12-18T11:57:42;27.00;;;9.43;;
19024;SDS011;9645;51.448;6.260;2022-12-18T12:00:18;30.10;;;9.82;;
19024;SDS011;9645;51.448;6.260;2022-12-18T12:03:06;32.17;;;10.27;;
19024;SDS011;9645;51.448;6.260;2022-12-18T12:05:49;28.67;;;10.43;;
19024;SDS011;9645;51.448;6.260;2022-12-18T12:08:26;28.17;;;9.65;;
19024;SDS011;9645;51.448;6.260;2022-12-18T12:11:02;27.08;;;10.07;;
19024;SDS011;9645;51.448;6.260;2022-12-18T12:13:43;37.55;;;10.70;;
19024;SDS011;9645;51.448;6.260;2022-12-18T12:16:31;28.67;;;10.77;;
19024;SDS011;9645;51.448;6.260;2022-12-18T12:19:11;40.42;;;11.35;;
19024;SDS011;9645;51.448;6.260;2022-12-18T12:21:50;31.90;;;10.57;;
19024;SDS011;9645;51.448;6.260;2022-12-18T12:24:28;29.80;;;10.65;;
19024;SDS011;9645;51.448;6.260;2022-12-18T12:27:06;75.47;;;20.92;;
19024;SDS011;9645;51.448;6.260;2022-12-18T12:29:46;34.03;;;11.23;;
19024;SDS011;9645;51.448;6.260;2022-12-18T12:32:29;40.35;;;11.60;;
19024;SDS011;9645;51.448;6.260;2022-12-18T12:35:09;32.65;;;11.07;;
19024;SDS011;9645;51.448;6.260;2022-12-18T12:37:56;30.50;;;11.27;;
19024;SDS011;9645;51.448;6.260;2022-12-18T12:40:35;29.20;;;10.32;;
19024;SDS011;9645;51.448;6.260;2022-12-18T12:43:12;31.95;;;11.00;;
19024;SDS011;9645;51.448;6.260;2022-12-18T12:45:48;25.77;;;10.32;;
19024;SDS011;9645;51.448;6.260;2022-12-18T12:48:23;36.03;;;11.52;;
19024;SDS011;9645;51.448;6.260;2022-12-18T12:51:06;32.95;;;11.70;;
19024;SDS011;9645;51.448;6.260;2022-12-18T12:53:37;39.20;;;11.82;;
19024;SDS011;9645;51.448;6.260;2022-12-18T12:56:07;33.03;;;12.55;;
19024;SDS011;9645;51.448;6.260;2022-12-18T12:58:41;33.55;;;11.35;;
19024;SDS011;9645;51.448;6.260;2022-12-18T13:01:20;39.17;;;10.23;;
19024;SDS011;9645;51.448;6.260;2022-12-18T13:03:56;41.03;;;11.60;;
19024;SDS011;9645;51.448;6.260;2022-12-18T13:06:40;32.40;;;11.82;;
19024;SDS011;9645;51.448;6.260;2022-12-18T13:09:15;31.73;;;11.23;;
19024;SDS011;9645;51.448;6.260;2022-12-18T13:11:43;33.25;;;11.60;;
19024;SDS011;9645;51.448;6.260;2022-12-18T13:14:30;35.22;;;12.27;;
19024;SDS011;9645;51.448;6.260;2022-12-18T13:17:15;33.40;;;11.18;;
19024;SDS011;9645;51.448;6.260;2022-12-18T13:20:02;29.60;;;11.25;;
19024;SDS011;9645;51.448;6.260;2022-12-18T13:22:35;32.60;;;11.13;;
19024;SDS011;9645;51.448;6.260;2022-12-18T13:28:06;34.85;;;11.32;;
19024;SDS011;9645;51.448;6.260;2022-12-18T13:30:55;31.92;;;11.18;;
19024;SDS011;9645;51.448;6.260;2022-12-18T13:36:14;30.75;;;10.75;;
19024;SDS011;9645;51.448;6.260;2022-12-18T13:38:55;33.65;;;11.85;;
19024;SDS011;9645;51.448;6.260;2022-12-18T13:41:48;37.35;;;13.95;;
19024;SDS011;9645;51.448;6.260;2022-12-18T13:44:31;33.05;;;11.45;;
19024;SDS011;9645;51.448;6.260;2022-12-18T13:47:01;37.47;;;11.30;;
19024;SDS011;9645;51.448;6.260;2022-12-18T13:49:32;37.53;;;12.00;;
19024;SDS011;9645;51.448;6.260;2022-12-18T13:52:12;47.85;;;16.20;;
19024;SDS011;9645;51.448;6.260;2022-12-18T13:54:44;37.40;;;12.70;;
19024;SDS011;9645;51.448;6.260;2022-12-18T13:57:25;35.95;;;12.55;;
19024;SDS011;9645;51.448;6.260;2022-12-18T13:59:54;29.63;;;11.55;;
19024;SDS011;9645;51.448;6.260;2022-12-18T14:02:22;29.08;;;11.10;;
19024;SDS011;9645;51.448;6.260;2022-12-18T14:04:51;34.83;;;12.35;;
19024;SDS011;9645;51.448;6.260;2022-12-18T14:07:21;37.72;;;12.07;;
19024;SDS011;9645;51.448;6.260;2022-12-18T14:09:49;31.90;;;12.77;;
19024;SDS011;9645;51.448;6.260;2022-12-18T14:12:19;31.75;;;11.20;;
19024;SDS011;9645;51.448;6.260;2022-12-18T14:15:06;36.45;;;13.15;;
19024;SDS011;9645;51.448;6.260;2022-12-18T14:17:46;38.15;;;12.70;;
19024;SDS011;9645;51.448;6.260;2022-12-18T14:20:15;36.10;;;11.10;;
19024;SDS011;9645;51.448;6.260;2022-12-18T14:22:43;33.28;;;11.68;;
19024;SDS011;9645;51.448;6.260;2022-12-18T14:25:17;44.35;;;11.40;;
19024;SDS011;9645;51.448;6.260;2022-12-18T14:27:46;43.92;;;13.88;;
19024;SDS011;9645;51.448;6.260;2022-12-18T14:33:05;37.00;;;12.23;;
19024;SDS011;9645;51.448;6.260;2022-12-18T14:35:38;37.92;;;12.80;;
19024;SDS011;9645;51.448;6.260;2022-12-18T14:38:23;37.95;;;11.98;;
19024;SDS011;9645;51.448;6.260;2022-12-18T14:40:52;34.90;;;11.63;;
19024;SDS011;9645;51.448;6.260;2022-12-18T14:43:28;43.72;;;13.13;;
19024;SDS011;9645;51.448;6.260;2022-12-18T14:45:57;43.08;;;13.38;;
19024;SDS011;9645;51.448;6.260;2022-12-18T14:48:32;37.72;;;11.88;;
19024;SDS011;9645;51.448;6.260;2022-12-18T14:51:04;38.28;;;12.57;;
19024;SDS011;9645;51.448;6.260;2022-12-18T14:53:34;32.38;;;12.32;;
19024;SDS011;9645;51.448;6.260;2022-12-18T14:56:04;38.28;;;11.57;;
19024;SDS011;9645;51.448;6.260;2022-12-18T14:58:44;37.85;;;12.43;;
19024;SDS011;9645;51.448;6.260;2022-12-18T15:01:26;36.65;;;12.00;;
19024;SDS011;9645;51.448;6.260;2022-12-18T15:03:56;37.58;;;12.38;;
19024;SDS011;9645;51.448;6.260;2022-12-18T15:06:27;39.33;;;12.15;;
19024;SDS011;9645;51.448;6.260;2022-12-18T15:08:56;47.67;;;14.38;;
19024;SDS011;9645;51.448;6.260;2022-12-18T15:11:28;48.95;;;14.98;;
19024;SDS011;9645;51.448;6.260;2022-12-18T15:13:59;40.55;;;13.52;;
19024;SDS011;9645;51.448;6.260;2022-12-18T15:16:49;41.75;;;13.63;;
19024;SDS011;9645;51.448;6.260;2022-12-18T15:19:17;37.08;;;12.43;;